Time;durP1;ratioP1;P1;durP2;ratioP2;P2;SDS_P1;SDS_P2;PMS_P1;PMS_P2;Temp;Humidity;BMP_temperature;BMP_pressure;BME280_temperature;BME280_humidity;BME280_pressure;Samples;Min_cycle;Max_cycle;Signal;HPM_P1;HPM_P2
2023/12/12 00:00:21;;;;;;;13.20;4.60;;;10.40;99.90;;;;;;4866440;29;20074;-81
2023/12/12 00:02:47;;;;;;;16.20;5.03;;;10.50;99.90;;;;;;4837087;29;20368;-82
2023/12/12 00:05:13;;;;;;;12.23;5.05;;;10.50;99.90;;;;;;4851525;29;20040;-81
2023/12/12 00:07:39;;;;;;;14.00;4.72;;;10.50;99.90;;;;;;4836291;29;20127;-81
2023/12/12 00:10:06;;;;;;;18.15;5.75;;;10.50;99.90;;;;;;4835906;29;20037;-81
2023/12/12 00:12:31;;;;;;;16.02;4.82;;;10.50;99.90;;;;;;4851530;29;20068;-81
2023/12/12 00:14:57;;;;;;;15.13;4.50;;;10.50;99.90;;;;;;4836084;29;20427;-81
2023/12/12 00:17:23;;;;;;;11.02;4.55;;;10.50;99.90;;;;;;4851335;29;20033;-81
2023/12/12 00:19:49;;;;;;;9.63;3.90;;;10.50;99.90;;;;;;4852020;29;20423;-82
2023/12/12 00:22:14;;;;;;;12.23;4.90;;;10.50;99.90;;;;;;4836053;29;20445;-83
2023/12/12 00:24:40;;;;;;;11.18;4.47;;;10.50;99.90;;;;;;4851472;29;20037;-82
2023/12/12 00:27:05;;;;;;;11.68;4.57;;;10.50;99.90;;;;;;4851003;29;20040;-82
2023/12/12 00:29:35;;;;;;;12.02;4.25;;;10.60;99.90;;;;;;4850958;29;20037;-82
2023/12/12 00:32:01;;;;;;;11.80;4.82;;;10.60;99.90;;;;;;4851791;29;20041;-82
2023/12/12 00:34:27;;;;;;;9.63;4.55;;;10.60;99.90;;;;;;4866350;29;20033;-81
2023/12/12 00:36:53;;;;;;;12.55;4.57;;;10.60;99.90;;;;;;4835459;29;20053;-84
2023/12/12 00:39:18;;;;;;;12.10;4.68;;;10.60;99.90;;;;;;4865970;29;20041;-84
2023/12/12 00:41:44;;;;;;;14.50;4.70;;;10.60;99.90;;;;;;4850963;29;20077;-82
2023/12/12 00:44:10;;;;;;;10.48;4.82;;;10.60;99.90;;;;;;4851417;29;20364;-83
2023/12/12 00:46:36;;;;;;;13.32;4.75;;;10.60;99.90;;;;;;4850886;29;20055;-83
2023/12/12 00:49:01;;;;;;;14.15;4.50;;;10.60;99.90;;;;;;4851152;29;20435;-82
2023/12/12 00:51:27;;;;;;;11.55;4.50;;;10.60;99.90;;;;;;4851024;29;20360;-83
2023/12/12 00:53:52;;;;;;;15.52;4.90;;;10.50;99.90;;;;;;4835522;29;20482;-83
2023/12/12 00:56:18;;;;;;;10.85;4.30;;;10.50;99.90;;;;;;4866260;29;20037;-84
2023/12/12 00:58:44;;;;;;;12.43;4.38;;;10.50;99.90;;;;;;4835535;29;20041;-83
2023/12/12 01:01:12;;;;;;;12.77;4.40;;;10.40;99.90;;;;;;4835058;29;20101;-83
2023/12/12 01:03:38;;;;;;;14.52;4.88;;;10.40;99.90;;;;;;4882748;29;20035;-84
2023/12/12 01:06:04;;;;;;;13.73;4.75;;;10.50;99.90;;;;;;4850629;29;20033;-84
2023/12/12 01:08:29;;;;;;;12.73;4.70;;;10.40;99.90;;;;;;4836129;29;20530;-83
2023/12/12 01:10:55;;;;;;;13.77;5.00;;;10.40;99.90;;;;;;4849779;29;20065;-83
2023/12/12 01:13:21;;;;;;;13.93;4.50;;;10.40;99.90;;;;;;4835031;29;20474;-83
2023/12/12 01:15:46;;;;;;;13.35;4.35;;;10.30;99.90;;;;;;4850326;29;20391;-83
2023/12/12 01:18:12;;;;;;;17.38;4.20;;;10.30;99.90;;;;;;4850831;29;20458;-83
2023/12/12 01:20:38;;;;;;;11.23;4.22;;;10.30;99.90;;;;;;4850339;29;20478;-83
2023/12/12 01:23:03;;;;;;;12.50;3.78;;;10.20;99.90;;;;;;4850247;29;20037;-83
2023/12/12 01:25:30;;;;;;;13.13;4.10;;;10.20;99.90;;;;;;4850327;29;20037;-84
2023/12/12 01:27:55;;;;;;;12.90;4.90;;;10.20;99.90;;;;;;4850182;29;20128;-84
2023/12/12 01:30:21;;;;;;;13.77;3.97;;;10.20;99.90;;;;;;4865372;29;20185;-84
2023/12/12 01:32:46;;;;;;;17.48;4.10;;;10.20;99.90;;;;;;4865362;29;20037;-84
2023/12/12 01:35:12;;;;;;;11.48;3.90;;;10.10;99.90;;;;;;4850029;29;20033;-84
2023/12/12 01:37:38;;;;;;;10.00;3.83;;;10.10;99.90;;;;;;4837860;29;20141;-84
2023/12/12 01:40:04;;;;;;;13.48;3.58;;;10.20;99.90;;;;;;4843907;29;20125;-84
2023/12/12 01:42:30;;;;;;;13.95;4.00;;;10.10;99.90;;;;;;4844469;29;20121;-84
2023/12/12 01:44:56;;;;;;;14.85;3.80;;;10.10;99.90;;;;;;4843730;29;20458;-84
2023/12/12 01:47:22;;;;;;;7.88;3.40;;;10.00;99.90;;;;;;4844219;29;20034;-84
2023/12/12 01:49:48;;;;;;;11.40;3.78;;;10.00;99.90;;;;;;4844014;29;20037;-84
2023/12/12 01:52:15;;;;;;;10.95;3.97;;;9.90;99.90;;;;;;4843624;29;20034;-83
2023/12/12 01:54:45;;;;;;;13.82;4.40;;;9.90;99.90;;;;;;4843879;29;20129;-85
2023/12/12 01:57:12;;;;;;;13.43;3.92;;;9.80;99.90;;;;;;4843633;29;20090;-84
2023/12/12 01:59:38;;;;;;;17.20;4.93;;;9.80;99.90;;;;;;4843816;29;20087;-84
2023/12/12 02:02:06;;;;;;;10.65;4.68;;;9.80;99.90;;;;;;4828845;29;20387;-84
2023/12/12 02:04:32;;;;;;;14.23;5.28;;;9.80;99.90;;;;;;4844155;29;20034;-83
2023/12/12 02:07:01;;;;;;;11.38;4.70;;;9.70;99.90;;;;;;4813436;29;20086;-82
2023/12/12 02:09:27;;;;;;;15.32;5.65;;;9.60;99.90;;;;;;4846367;29;20468;-82
2023/12/12 02:11:53;;;;;;;11.70;4.60;;;9.60;99.90;;;;;;4815081;29;20041;-85
2023/12/12 02:14:18;;;;;;;16.58;4.80;;;9.60;99.90;;;;;;4829843;29;20030;-84
2023/12/12 02:16:45;;;;;;;9.82;4.75;;;9.60;99.90;;;;;;4845936;29;20034;-84
2023/12/12 02:19:12;;;;;;;12.88;4.70;;;9.60;99.90;;;;;;4831612;29;20185;-84
2023/12/12 02:21:37;;;;;;;16.10;5.18;;;9.60;99.90;;;;;;4843585;29;20051;-84
2023/12/12 02:24:04;;;;;;;11.00;5.20;;;9.60;99.90;;;;;;4828848;29;20033;-84
2023/12/12 02:26:29;;;;;;;12.73;5.00;;;9.60;99.90;;;;;;4844212;29;20045;-84
2023/12/12 02:28:55;;;;;;;17.70;6.18;;;9.60;99.90;;;;;;4827894;29;20038;-84
2023/12/12 02:31:21;;;;;;;18.25;5.35;;;9.60;99.90;;;;;;4828352;29;20030;-84
2023/12/12 02:33:47;;;;;;;16.23;6.20;;;9.60;99.90;;;;;;4812762;29;20391;-84
2023/12/12 02:36:12;;;;;;;13.43;5.55;;;9.60;99.90;;;;;;4828333;29;20361;-84
2023/12/12 02:38:38;;;;;;;17.00;4.88;;;9.60;99.90;;;;;;4876426;29;20056;-78
2023/12/12 02:41:04;;;;;;;15.00;5.15;;;9.60;99.90;;;;;;4863687;29;20103;-78
2023/12/12 02:43:29;;;;;;;15.88;5.57;;;9.60;99.90;;;;;;4865574;29;20043;-79
2023/12/12 02:45:55;;;;;;;13.50;5.47;;;9.60;99.90;;;;;;4881505;29;20036;-78
2023/12/12 02:48:20;;;;;;;12.00;5.28;;;9.60;99.90;;;;;;4864701;29;20085;-78
2023/12/12 02:50:46;;;;;;;12.50;4.72;;;9.70;99.90;;;;;;4865153;29;20048;-78
2023/12/12 02:53:12;;;;;;;9.05;4.40;;;9.70;99.90;;;;;;4863378;29;20040;-78
2023/12/12 02:58:40;;;;;;;16.83;6.13;;;9.70;99.90;;;;;;4868187;29;20124;-78
2023/12/12 03:01:06;;;;;;;9.57;4.88;;;9.70;99.90;;;;;;4864711;29;20057;-78
2023/12/12 03:03:31;;;;;;;15.65;5.43;;;9.70;99.90;;;;;;4849521;29;20064;-78
2023/12/12 03:05:57;;;;;;;16.55;5.68;;;9.70;99.90;;;;;;4879429;29;20033;-78
2023/12/12 03:08:23;;;;;;;10.20;5.38;;;9.70;99.90;;;;;;4847241;29;20449;-78
2023/12/12 03:10:48;;;;;;;16.15;6.78;;;9.70;99.90;;;;;;4847314;29;20482;-78
2023/12/12 03:13:14;;;;;;;15.40;6.55;;;9.70;99.90;;;;;;4847123;29;20045;-78
2023/12/12 03:15:39;;;;;;;12.20;6.60;;;9.70;99.90;;;;;;4832770;29;20041;-78
2023/12/12 03:18:05;;;;;;;15.80;6.40;;;9.70;99.90;;;;;;4862844;29;20454;-78
2023/12/12 03:20:31;;;;;;;19.92;6.97;;;9.70;99.90;;;;;;4831805;29;20037;-78
2023/12/12 03:22:56;;;;;;;19.35;7.53;;;9.70;99.90;;;;;;4864685;29;20394;-78
2023/12/12 03:25:22;;;;;;;15.45;7.35;;;9.70;99.90;;;;;;4846968;29;20048;-78
2023/12/12 03:27:47;;;;;;;16.83;7.20;;;9.70;99.90;;;;;;4847318;29;20033;-76
2023/12/12 03:30:14;;;;;;;16.05;7.15;;;9.70;99.90;;;;;;4865908;29;20031;-76
2023/12/12 03:32:39;;;;;;;19.15;7.72;;;9.70;99.90;;;;;;4869121;24;20418;-75
2023/12/12 03:35:05;;;;;;;14.90;7.20;;;9.70;99.90;;;;;;4862134;29;20041;-75
2023/12/12 03:37:31;;;;;;;17.52;7.80;;;9.70;99.90;;;;;;4879048;29;20415;-74
2023/12/12 03:39:56;;;;;;;15.93;8.32;;;9.70;99.90;;;;;;4878634;29;20156;-75
2023/12/12 03:42:22;;;;;;;18.88;8.63;;;9.60;99.90;;;;;;4879382;29;20471;-74
2023/12/12 03:44:48;;;;;;;14.15;7.30;;;9.60;99.90;;;;;;4879043;29;20041;-74
2023/12/12 03:47:13;;;;;;;20.10;7.65;;;9.60;99.90;;;;;;4879147;29;20374;-74
2023/12/12 03:49:39;;;;;;;13.02;7.05;;;9.60;99.90;;;;;;4862290;29;20033;-74
2023/12/12 03:52:05;;;;;;;15.10;7.43;;;9.60;99.90;;;;;;4862396;29;20545;-74
2023/12/12 03:54:33;;;;;;;15.93;7.10;;;9.60;99.90;;;;;;4878878;29;20172;-74
2023/12/12 03:56:59;;;;;;;16.25;7.50;;;9.60;99.90;;;;;;4879006;29;20167;-75
2023/12/12 03:59:24;;;;;;;19.35;7.45;;;9.60;99.90;;;;;;4831939;29;20140;-74
2023/12/12 04:01:50;;;;;;;15.75;7.63;;;9.60;99.90;;;;;;4878810;29;20033;-74
2023/12/12 04:04:20;;;;;;;16.23;7.35;;;9.70;99.90;;;;;;4878782;29;20041;-74
2023/12/12 04:06:46;;;;;;;17.52;7.93;;;9.70;99.90;;;;;;4862418;29;20530;-75
2023/12/12 04:09:12;;;;;;;21.33;7.57;;;9.70;99.90;;;;;;4878724;29;20093;-75
2023/12/12 04:11:38;;;;;;;17.05;7.38;;;9.70;99.90;;;;;;4861887;29;20028;-74
2023/12/12 04:14:04;;;;;;;21.33;8.52;;;9.60;99.90;;;;;;4861713;29;20433;-74
2023/12/12 04:16:29;;;;;;;20.40;7.68;;;9.60;99.90;;;;;;4861867;29;20112;-74
2023/12/12 04:18:55;;;;;;;18.73;7.35;;;9.60;99.90;;;;;;4878578;29;20049;-74
2023/12/12 04:21:21;;;;;;;20.42;6.65;;;9.60;99.90;;;;;;4878882;29;20072;-74
2023/12/12 04:23:46;;;;;;;17.88;6.60;;;9.60;99.90;;;;;;4861889;29;20061;-75
2023/12/12 04:26:12;;;;;;;19.23;6.53;;;9.60;99.90;;;;;;4846584;29;20132;-75
2023/12/12 04:28:39;;;;;;;21.98;6.75;;;9.60;99.90;;;;;;4878455;29;20534;-74
2023/12/12 04:31:04;;;;;;;15.68;6.60;;;9.60;99.90;;;;;;4878326;29;20124;-74
2023/12/12 04:33:30;;;;;;;21.45;6.72;;;9.60;99.90;;;;;;4879114;29;20104;-75
2023/12/12 04:35:56;;;;;;;18.73;7.25;;;9.60;99.90;;;;;;4878603;29;20537;-75
2023/12/12 04:38:21;;;;;;;21.60;7.10;;;9.60;99.90;;;;;;4862029;29;20427;-75
2023/12/12 04:40:48;;;;;;;17.77;7.43;;;9.60;99.90;;;;;;4878937;29;20052;-74
2023/12/12 04:43:13;;;;;;;13.30;6.82;;;9.70;99.90;;;;;;4878149;29;20084;-74
2023/12/12 04:45:39;;;;;;;15.90;7.00;;;9.70;99.90;;;;;;4863887;29;20124;-74
2023/12/12 04:48:05;;;;;;;17.80;7.43;;;9.70;99.90;;;;;;4881957;29;20029;-74
2023/12/12 04:50:31;;;;;;;15.10;6.57;;;9.60;99.90;;;;;;4865376;29;20089;-74
2023/12/12 04:52:56;;;;;;;20.05;6.93;;;9.60;99.90;;;;;;4865628;29;20069;-74
2023/12/12 04:55:22;;;;;;;22.95;6.43;;;9.70;99.90;;;;;;4881857;29;20057;-73
2023/12/12 04:57:48;;;;;;;19.80;6.97;;;9.70;99.90;;;;;;4882124;29;20027;-74
2023/12/12 05:00:14;;;;;;;15.57;6.38;;;9.70;99.90;;;;;;4849701;29;20189;-74
2023/12/12 05:02:45;;;;;;;19.48;7.03;;;9.70;99.90;;;;;;4881627;29;20120;-74
2023/12/12 05:05:11;;;;;;;17.00;6.88;;;9.70;99.90;;;;;;4850192;29;20074;-73
2023/12/12 05:07:36;;;;;;;19.08;7.10;;;9.60;99.90;;;;;;4865261;29;20090;-74
2023/12/12 05:10:02;;;;;;;25.38;7.25;;;9.60;99.90;;;;;;4881916;29;20124;-75
2023/12/12 05:12:28;;;;;;;24.60;7.57;;;9.60;99.90;;;;;;4881762;29;20048;-74
2023/12/12 05:14:54;;;;;;;20.80;6.43;;;9.60;99.90;;;;;;4865227;29;20041;-74
2023/12/12 05:17:19;;;;;;;17.77;6.40;;;9.60;99.90;;;;;;4881375;29;20033;-74
2023/12/12 05:19:45;;;;;;;17.13;7.30;;;9.60;99.90;;;;;;4865044;29;20033;-75
2023/12/12 05:22:11;;;;;;;20.83;6.90;;;9.60;99.90;;;;;;4865006;29;20033;-75
2023/12/12 05:24:36;;;;;;;25.33;7.45;;;9.50;99.90;;;;;;4864513;29;20032;-74
2023/12/12 05:27:02;;;;;;;25.33;7.28;;;9.40;99.90;;;;;;4881644;29;20040;-75
2023/12/12 05:29:28;;;;;;;21.88;7.47;;;9.30;99.90;;;;;;4881409;29;20461;-74
2023/12/12 05:31:54;;;;;;;20.30;8.07;;;9.30;99.90;;;;;;4849211;29;20574;-74
2023/12/12 05:34:19;;;;;;;21.75;7.20;;;9.40;99.90;;;;;;4865044;29;20041;-74
2023/12/12 05:36:45;;;;;;;21.48;6.90;;;9.40;99.90;;;;;;4864597;29;20052;-75
2023/12/12 05:39:11;;;;;;;23.52;7.15;;;9.40;99.90;;;;;;4864702;29;20501;-76
2023/12/12 05:41:36;;;;;;;19.10;7.18;;;9.40;99.90;;;;;;4864812;29;20041;-76
2023/12/12 05:44:02;;;;;;;18.60;6.78;;;9.40;99.90;;;;;;4848950;29;20072;-75
2023/12/12 05:46:28;;;;;;;22.92;7.32;;;9.40;99.90;;;;;;4880995;29;20037;-75
2023/12/12 05:48:53;;;;;;;15.90;5.93;;;9.40;99.90;;;;;;4849172;29;20072;-76
2023/12/12 05:51:19;;;;;;;18.17;6.53;;;9.40;99.90;;;;;;4881223;29;20393;-74
2023/12/12 05:53:45;;;;;;;16.58;7.05;;;9.40;99.90;;;;;;4880803;29;20037;-74
2023/12/12 05:56:13;;;;;;;22.98;7.07;;;9.30;99.90;;;;;;4880983;29;20120;-74
2023/12/12 05:58:39;;;;;;;18.08;6.80;;;9.30;99.90;;;;;;4880738;29;20044;-74
2023/12/12 06:01:05;;;;;;;22.33;6.93;;;9.20;99.90;;;;;;4880809;29;20055;-74
2023/12/12 06:03:31;;;;;;;25.88;7.95;;;9.30;99.90;;;;;;4864187;29;20169;-74
2023/12/12 06:05:57;;;;;;;22.98;6.60;;;9.30;99.90;;;;;;4864317;29;20030;-74
2023/12/12 06:08:23;;;;;;;27.88;8.18;;;9.10;99.90;;;;;;4864126;29;20040;-74
2023/12/12 06:10:48;;;;;;;23.58;7.32;;;9.10;99.90;;;;;;4864072;29;20422;-73
2023/12/12 06:13:15;;;;;;;22.70;6.43;;;9.10;99.90;;;;;;4880582;29;20052;-74
2023/12/12 06:15:41;;;;;;;23.17;6.57;;;9.10;99.90;;;;;;4863734;29;20029;-74
2023/12/12 06:18:07;;;;;;;15.40;6.10;;;9.20;99.90;;;;;;4880600;29;20389;-74
2023/12/12 06:20:33;;;;;;;21.80;7.57;;;9.20;99.90;;;;;;4863805;29;20056;-75
2023/12/12 06:22:59;;;;;;;20.20;7.20;;;9.30;99.90;;;;;;4863536;29;20144;-74
2023/12/12 06:25:24;;;;;;;21.05;7.07;;;9.20;99.90;;;;;;4880452;29;20557;-76
2023/12/12 06:27:50;;;;;;;22.48;8.52;;;9.20;99.90;;;;;;4863500;29;20052;-75
2023/12/12 06:30:16;;;;;;;21.92;7.90;;;9.20;99.90;;;;;;4880040;29;20063;-74
2023/12/12 06:32:42;;;;;;;22.75;8.23;;;9.10;99.90;;;;;;4879877;29;20196;-75
2023/12/12 06:35:08;;;;;;;19.95;7.75;;;9.20;99.90;;;;;;4880074;29;20477;-76
2023/12/12 06:37:33;;;;;;;23.10;7.88;;;9.10;99.90;;;;;;4863553;29;20497;-76
2023/12/12 06:40:00;;;;;;;27.75;8.68;;;9.10;99.90;;;;;;4880093;29;20045;-75
2023/12/12 06:42:25;;;;;;;32.10;8.77;;;9.10;99.90;;;;;;4880185;29;20029;-75
2023/12/12 06:44:51;;;;;;;30.80;8.85;;;9.00;99.90;;;;;;4862704;29;20553;-75
2023/12/12 06:47:17;;;;;;;28.08;8.50;;;8.90;99.90;;;;;;4879727;29;20033;-75
2023/12/12 06:49:42;;;;;;;28.00;9.77;;;8.90;99.90;;;;;;4863079;29;20051;-74
2023/12/12 06:52:08;;;;;;;25.88;9.70;;;9.00;99.90;;;;;;4847929;29;20486;-75
2023/12/12 06:54:34;;;;;;;24.08;8.70;;;8.90;99.90;;;;;;4862738;29;20033;-75
2023/12/12 06:56:59;;;;;;;27.52;8.27;;;9.00;99.90;;;;;;4862960;29;20068;-74
2023/12/12 06:59:25;;;;;;;30.83;8.82;;;9.00;99.90;;;;;;4879826;29;20048;-75
2023/12/12 07:01:51;;;;;;;32.47;9.98;;;9.00;99.90;;;;;;4879173;29;20119;-73
2023/12/12 07:04:17;;;;;;;32.80;9.98;;;9.00;99.90;;;;;;4879511;29;20040;-72
2023/12/12 07:06:42;;;;;;;31.60;9.50;;;9.00;99.90;;;;;;4862881;29;20048;-72
2023/12/12 07:09:12;;;;;;;34.53;9.55;;;8.90;99.90;;;;;;4879606;29;20048;-72
2023/12/12 07:11:38;;;;;;;35.35;9.70;;;8.90;99.90;;;;;;4862926;29;20069;-72
2023/12/12 07:14:04;;;;;;;32.55;9.85;;;9.00;99.90;;;;;;4862299;29;20037;-73
2023/12/12 07:16:30;;;;;;;33.92;10.80;;;8.90;99.90;;;;;;4879404;29;20037;-73
2023/12/12 07:18:58;;;;;;;36.55;10.05;;;8.90;99.90;;;;;;4847416;29;20040;-73
2023/12/12 07:21:23;;;;;;;31.77;9.82;;;8.90;99.90;;;;;;4847796;29;20061;-73
2023/12/12 07:23:51;;;;;;;35.72;11.15;;;8.90;99.90;;;;;;4879282;29;20045;-73
2023/12/12 07:26:18;;;;;;;39.67;11.75;;;8.90;99.90;;;;;;4862157;29;20093;-73
2023/12/12 07:28:44;;;;;;;42.55;11.60;;;8.90;99.90;;;;;;4847200;29;20029;-72
2023/12/12 07:31:10;;;;;;;45.05;12.50;;;8.90;99.90;;;;;;4862198;29;20033;-73
2023/12/12 07:33:36;;;;;;;42.17;12.77;;;8.90;99.90;;;;;;4862960;29;20116;-72
2023/12/12 07:36:02;;;;;;;37.80;11.65;;;8.80;99.90;;;;;;4879129;29;20033;-72
2023/12/12 07:38:28;;;;;;;34.15;12.15;;;8.80;99.90;;;;;;4879251;29;20037;-72
2023/12/12 07:40:53;;;;;;;39.53;11.30;;;8.90;99.90;;;;;;4861781;29;20663;-73
2023/12/12 07:43:19;;;;;;;41.83;11.90;;;8.90;99.90;;;;;;4878549;29;20112;-72
2023/12/12 07:45:45;;;;;;;34.38;11.32;;;8.90;99.90;;;;;;4862197;29;20156;-72
2023/12/12 07:48:10;;;;;;;47.60;12.18;;;9.00;99.90;;;;;;4879006;29;20048;-72
2023/12/12 07:50:36;;;;;;;37.38;12.05;;;9.00;99.90;;;;;;4846781;29;20128;-72
2023/12/12 07:53:04;;;;;;;44.78;13.25;;;9.00;99.90;;;;;;4878940;29;20516;-71
2023/12/12 07:55:31;;;;;;;43.13;11.15;;;9.00;99.90;;;;;;4877865;29;20029;-71
2023/12/12 07:57:57;;;;;;;41.35;12.07;;;9.00;99.90;;;;;;4877656;29;20451;-72
2023/12/12 08:00:22;;;;;;;49.58;12.23;;;9.00;99.90;;;;;;4832793;29;20045;-72
2023/12/12 08:02:48;;;;;;;37.25;12.02;;;9.10;99.90;;;;;;4857541;29;20369;-72
2023/12/12 08:05:14;;;;;;;42.85;12.27;;;9.00;99.90;;;;;;4861941;29;20056;-72
2023/12/12 08:07:39;;;;;;;44.00;12.32;;;9.00;99.90;;;;;;4878755;29;20041;-72
2023/12/12 08:10:06;;;;;;;45.70;10.68;;;9.00;99.90;;;;;;4879099;29;20530;-72
2023/12/12 08:12:31;;;;;;;42.05;10.50;;;9.10;99.90;;;;;;4861879;29;20037;-73
2023/12/12 08:14:57;;;;;;;33.72;9.63;;;9.20;99.90;;;;;;4878699;29;20097;-72
2023/12/12 08:17:23;;;;;;;33.63;9.40;;;9.20;99.90;;;;;;4886412;29;20509;-72
2023/12/12 08:19:48;;;;;;;34.97;10.77;;;9.30;99.90;;;;;;4897843;29;20500;-72
2023/12/12 08:22:14;;;;;;;45.55;10.65;;;9.30;99.90;;;;;;4884543;29;20542;-72
2023/12/12 08:24:40;;;;;;;38.35;10.75;;;9.30;99.90;;;;;;4867320;29;20041;-73
2023/12/12 08:27:07;;;;;;;32.63;9.35;;;9.20;99.90;;;;;;4865485;29;20443;-72
2023/12/12 08:29:33;;;;;;;36.78;10.02;;;9.30;99.90;;;;;;4881532;29;20053;-73
2023/12/12 08:31:58;;;;;;;30.35;8.57;;;9.30;99.90;;;;;;4881540;29;20057;-72
2023/12/12 08:34:24;;;;;;;34.75;9.93;;;9.40;99.90;;;;;;4864328;29;20033;-73
2023/12/12 08:36:50;;;;;;;37.40;8.90;;;9.40;99.90;;;;;;4866140;29;20037;-73
2023/12/12 08:39:16;;;;;;;30.27;8.80;;;9.40;99.90;;;;;;4864164;29;20379;-72
2023/12/12 08:41:41;;;;;;;31.20;8.23;;;9.40;99.90;;;;;;4831603;29;20131;-72
2023/12/12 08:44:07;;;;;;;33.90;8.13;;;9.50;99.90;;;;;;4848210;29;20048;-72
2023/12/12 08:46:33;;;;;;;29.35;8.07;;;9.50;99.90;;;;;;4863879;29;20433;-71
2023/12/12 08:48:59;;;;;;;34.05;7.57;;;9.40;99.90;;;;;;4880673;29;20029;-72
2023/12/12 08:51:30;;;;;;;38.10;8.45;;;9.30;99.90;;;;;;4880755;29;20251;-73
2023/12/12 08:53:58;;;;;;;31.48;6.82;;;9.40;99.90;;;;;;4881054;29;20029;-73
2023/12/12 08:56:24;;;;;;;33.38;8.48;;;9.40;99.90;;;;;;4881165;29;20100;-73
2023/12/12 08:58:51;;;;;;;36.35;9.05;;;9.50;99.90;;;;;;4880293;29;20065;-72
2023/12/12 09:01:17;;;;;;;30.17;7.82;;;9.50;99.90;;;;;;4880785;29;20025;-73
2023/12/12 09:03:43;;;;;;;33.65;8.10;;;9.60;99.90;;;;;;4880541;29;20476;-73
2023/12/12 09:06:09;;;;;;;35.08;8.80;;;9.60;99.90;;;;;;4863268;29;20422;-73
2023/12/12 09:08:35;;;;;;;32.35;7.90;;;9.60;99.90;;;;;;4880691;29;20379;-73
2023/12/12 09:11:00;;;;;;;24.45;7.22;;;9.70;99.90;;;;;;4864042;29;20474;-77
2023/12/12 09:13:27;;;;;;;30.50;8.93;;;9.70;99.90;;;;;;4863830;29;20029;-75
2023/12/12 09:15:53;;;;;;;32.15;7.55;;;9.70;99.90;;;;;;4880930;29;20090;-74
2023/12/12 09:18:18;;;;;;;38.75;8.50;;;9.70;99.90;;;;;;4881048;29;20029;-75
2023/12/12 09:20:44;;;;;;;27.15;7.35;;;9.70;99.90;;;;;;4880116;29;20097;-73
2023/12/12 09:23:09;;;;;;;29.70;7.95;;;9.70;99.90;;;;;;4880348;29;20029;-74
2023/12/12 09:25:35;;;;;;;29.33;7.80;;;9.70;99.90;;;;;;4880133;29;20029;-74
2023/12/12 09:28:01;;;;;;;36.42;7.55;;;9.70;99.90;;;;;;4863153;29;20025;-74
2023/12/12 09:30:27;;;;;;;29.60;7.95;;;9.70;99.90;;;;;;4880127;29;20068;-74
2023/12/12 09:32:53;;;;;;;31.13;7.75;;;9.70;99.90;;;;;;4878168;29;20101;-73
2023/12/12 09:35:18;;;;;;;28.08;7.82;;;9.70;99.90;;;;;;4848388;29;20359;-74
2023/12/12 09:37:44;;;;;;;30.65;8.18;;;9.70;99.90;;;;;;4863222;29;20045;-72
2023/12/12 09:40:10;;;;;;;27.08;8.40;;;9.80;99.90;;;;;;4862916;29;20064;-72
2023/12/12 09:42:36;;;;;;;37.38;9.15;;;9.80;99.90;;;;;;4878403;29;20478;-72
2023/12/12 09:45:07;;;;;;;31.58;8.52;;;9.90;99.90;;;;;;4876869;29;20044;-73
2023/12/12 09:47:34;;;;;;;27.05;8.40;;;9.80;99.90;;;;;;4879461;29;20029;-72
2023/12/12 09:50:01;;;;;;;24.77;8.93;;;9.80;99.90;;;;;;4876973;29;20104;-72
2023/12/12 09:52:29;;;;;;;29.10;8.43;;;9.90;99.90;;;;;;4862076;29;20033;-72
2023/12/12 09:54:58;;;;;;;32.45;7.63;;;9.90;99.90;;;;;;4878148;29;20084;-74
2023/12/12 09:57:26;;;;;;;28.48;7.10;;;9.90;99.90;;;;;;4862843;29;20037;-73
2023/12/12 09:59:52;;;;;;;29.80;8.05;;;9.90;99.90;;;;;;4879386;29;20057;-73
2023/12/12 10:02:26;;;;;;;31.35;7.65;;;10.00;99.90;;;;;;4862957;29;20606;-73
2023/12/12 10:04:52;;;;;;;30.85;7.25;;;10.10;99.90;;;;;;4879423;29;20076;-72
2023/12/12 10:07:19;;;;;;;33.75;7.30;;;10.10;99.90;;;;;;4861818;29;20032;-72
2023/12/12 10:09:48;;;;;;;25.35;7.22;;;10.10;99.90;;;;;;4862549;29;20045;-73
2023/12/12 10:12:14;;;;;;;28.70;7.97;;;10.20;99.90;;;;;;4879795;29;20048;-77
2023/12/12 10:14:41;;;;;;;32.00;7.30;;;10.20;99.90;;;;;;4848863;29;20040;-74
2023/12/12 10:17:10;;;;;;;32.53;7.10;;;10.20;99.90;;;;;;4862325;29;20175;-74
2023/12/12 10:19:40;;;;;;;27.83;7.72;;;10.30;99.90;;;;;;4877482;29;20115;-75
2023/12/12 10:22:06;;;;;;;25.88;7.30;;;10.30;99.90;;;;;;4879248;29;20033;-75
2023/12/12 10:24:33;;;;;;;30.15;7.45;;;10.30;99.90;;;;;;4862469;29;20113;-72
2023/12/12 10:26:59;;;;;;;29.13;6.60;;;10.30;99.90;;;;;;4879151;29;20033;-71
2023/12/12 10:29:25;;;;;;;28.75;7.63;;;10.30;99.90;;;;;;4879476;29;20041;-71
2023/12/12 10:31:52;;;;;;;26.60;7.40;;;10.30;99.90;;;;;;4878541;29;20085;-74
2023/12/12 10:34:19;;;;;;;26.35;6.75;;;10.30;99.90;;;;;;4879170;29;20105;-74
2023/12/12 10:36:50;;;;;;;28.20;6.20;;;10.30;99.90;;;;;;4863281;29;20043;-73
2023/12/12 10:39:16;;;;;;;30.15;6.82;;;10.30;99.90;;;;;;4878550;29;20068;-73
2023/12/12 10:41:55;;;;;;;30.77;6.75;;;10.30;99.90;;;;;;4861976;29;20037;-75
2023/12/12 10:44:22;;;;;;;28.85;6.85;;;10.40;99.90;;;;;;4877753;29;20364;-75
2023/12/12 10:46:52;;;;;;;29.08;7.45;;;10.40;99.90;;;;;;4861989;29;20059;-76
2023/12/12 10:49:21;;;;;;;29.67;7.60;;;10.50;99.90;;;;;;4878867;29;20045;-76
2023/12/12 10:51:49;;;;;;;40.88;8.18;;;10.50;99.90;;;;;;4876533;29;20037;-75
2023/12/12 10:54:16;;;;;;;29.58;7.35;;;10.50;99.90;;;;;;4878579;29;20478;-75
2023/12/12 10:56:46;;;;;;;24.67;6.93;;;10.50;99.90;;;;;;4878163;29;20052;-75
2023/12/12 10:59:16;;;;;;;27.33;6.13;;;10.60;99.90;;;;;;4878340;29;20051;-75
2023/12/12 11:01:47;;;;;;;25.00;6.22;;;10.80;99.90;;;;;;4878726;29;20033;-75
2023/12/12 11:04:17;;;;;;;31.10;6.53;;;10.90;99.90;;;;;;4878462;29;20033;-75
2023/12/12 11:06:43;;;;;;;24.33;5.82;;;10.90;99.90;;;;;;4878867;29;20040;-75
2023/12/12 11:09:10;;;;;;;30.10;7.03;;;11.00;99.90;;;;;;4861649;29;20473;-75
2023/12/12 11:11:40;;;;;;;23.65;4.72;;;11.00;99.90;;;;;;4878053;29;20505;-75
2023/12/12 11:14:07;;;;;;;25.30;5.43;;;10.90;99.90;;;;;;4874140;29;20030;-76
2023/12/12 11:16:33;;;;;;;30.90;6.13;;;11.00;99.90;;;;;;4876265;29;20060;-75
2023/12/12 11:19:01;;;;;;;24.30;5.05;;;10.90;99.90;;;;;;4838469;29;20529;-76
2023/12/12 11:21:49;;;;;;;29.70;5.80;;;11.00;99.90;;;;;;4876371;29;20100;-75
2023/12/12 11:24:19;;;;;;;26.67;5.32;;;11.00;99.90;;;;;;4876876;29;20029;-75
2023/12/12 11:26:52;;;;;;;25.40;6.00;;;11.10;99.90;;;;;;4875841;29;20029;-75
2023/12/12 11:29:24;;;;;;;28.95;5.95;;;11.00;99.90;;;;;;4876886;29;20453;-75
2023/12/12 11:32:03;;;;;;;29.48;6.65;;;11.10;99.90;;;;;;4877553;29;20431;-75
2023/12/12 11:34:41;;;;;;;22.17;4.70;;;11.20;99.90;;;;;;4878259;29;20057;-76
2023/12/12 11:37:08;;;;;;;29.98;5.72;;;11.30;99.90;;;;;;4846363;29;20516;-76
2023/12/12 11:39:37;;;;;;;20.27;4.72;;;11.40;99.90;;;;;;4877133;29;20041;-75
2023/12/12 11:42:04;;;;;;;28.02;5.63;;;11.50;99.90;;;;;;4877982;29;20036;-77
2023/12/12 11:44:49;;;;;;;20.30;5.10;;;11.60;99.90;;;;;;4861117;29;20029;-77
2023/12/12 11:47:25;;;;;;;13.20;3.42;;;11.70;99.90;;;;;;4878704;29;20509;-77
2023/12/12 11:50:11;;;;;;;20.17;4.68;;;11.80;99.90;;;;;;4859775;29;20316;-77
2023/12/12 11:52:39;;;;;;;24.35;5.22;;;11.80;99.90;;;;;;4877187;29;20088;-77
2023/12/12 11:55:17;;;;;;;20.38;3.90;;;11.90;99.90;;;;;;4860933;29;20037;-76
2023/12/12 11:57:44;;;;;;;18.67;3.47;;;11.90;99.90;;;;;;4877242;29;20040;-77
2023/12/12 12:00:13;;;;;;;22.73;4.13;;;12.00;99.90;;;;;;4861049;29;20045;-76
2023/12/12 12:02:40;;;;;;;16.35;3.38;;;12.00;99.90;;;;;;4878334;29;20025;-76
2023/12/12 12:05:07;;;;;;;20.30;3.58;;;12.00;99.90;;;;;;4861478;29;20045;-77
2023/12/12 12:07:32;;;;;;;20.38;4.00;;;12.00;99.90;;;;;;4861388;29;20505;-76
2023/12/12 12:09:58;;;;;;;18.88;3.95;;;12.00;99.90;;;;;;4877910;29;20041;-76
2023/12/12 12:12:24;;;;;;;18.98;3.80;;;12.00;99.90;;;;;;4877316;29;20064;-76
2023/12/12 12:14:49;;;;;;;17.88;3.10;;;12.00;99.90;;;;;;4860872;29;20037;-77
2023/12/12 12:17:15;;;;;;;14.90;3.25;;;12.00;99.90;;;;;;4877894;29;20112;-78
2023/12/12 12:19:41;;;;;;;16.25;3.22;;;12.10;99.90;;;;;;4878481;29;20045;-76
2023/12/12 12:22:08;;;;;;;19.08;3.58;;;12.10;99.90;;;;;;4877978;29;20045;-77
2023/12/12 12:24:43;;;;;;;15.38;3.17;;;12.00;99.90;;;;;;4878378;29;20041;-76
2023/12/12 12:27:10;;;;;;;17.85;3.10;;;12.10;99.90;;;;;;4858581;29;20033;-76
2023/12/12 12:29:35;;;;;;;17.13;3.50;;;12.20;99.90;;;;;;4861669;29;20025;-77
2023/12/12 12:32:11;;;;;;;22.45;3.95;;;12.30;99.90;;;;;;4845337;29;20041;-76
2023/12/12 12:34:37;;;;;;;21.90;4.45;;;12.40;99.90;;;;;;4862169;29;20121;-77
2023/12/12 12:37:03;;;;;;;18.40;2.97;;;12.40;99.90;;;;;;4878205;29;20029;-76
2023/12/12 12:39:29;;;;;;;17.83;3.13;;;12.40;99.90;;;;;;4857257;29;20045;-77
2023/12/12 12:41:55;;;;;;;15.90;3.05;;;12.50;99.90;;;;;;4861775;29;20097;-76